sensor_id;sensor_type;location;lat;lon;timestamp;pressure;altitude;pressure_sealevel;temperature;humidity
12897;BME280;6516;35.028;32.372;2023-01-30T00:01:04;99764.53;;;11.36;79.70
12897;BME280;6516;35.028;32.372;2023-01-30T00:03:34;99765.28;;;11.41;79.54
12897;BME280;6516;35.028;32.372;2023-01-30T00:06:02;99770.13;;;11.56;79.14
12897;BME280;6516;35.028;32.372;2023-01-30T00:08:30;99765.53;;;11.64;78.95
12897;BME280;6516;35.028;32.372;2023-01-30T00:11:03;99771.66;;;11.66;78.95
12897;BME280;6516;35.028;32.372;2023-01-30T00:13:32;99763.72;;;11.66;79.26
12897;BME280;6516;35.028;32.372;2023-01-30T00:16:01;99771.66;;;11.66;79.28
12897;BME280;6516;35.028;32.372;2023-01-30T00:18:28;99768.13;;;11.65;79.51
12897;BME280;6516;35.028;32.372;2023-01-30T00:21:00;99762.75;;;11.70;79.37
12897;BME280;6516;35.028;32.372;2023-01-30T00:23:30;99756.78;;;11.63;79.81
12897;BME280;6516;35.028;32.372;2023-01-30T00:25:58;99767.41;;;11.60;80.24
12897;BME280;6516;35.028;32.372;2023-01-30T00:28:27;99757.03;;;11.53;80.46
12897;BME280;6516;35.028;32.372;2023-01-30T00:30:55;99751.06;;;11.46;80.37
12897;BME280;6516;35.028;32.372;2023-01-30T00:33:24;99747.59;;;11.44;79.78
12897;BME280;6516;35.028;32.372;2023-01-30T00:35:54;99749.38;;;11.44;79.43
12897;BME280;6516;35.028;32.372;2023-01-30T00:38:24;99745.19;;;11.37;79.61
12897;BME280;6516;35.028;32.372;2023-01-30T00:40:52;99740.09;;;11.31;79.43
12897;BME280;6516;35.028;32.372;2023-01-30T00:43:20;99741.94;;;11.27;79.19
12897;BME280;6516;35.028;32.372;2023-01-30T00:46:10;99739.34;;;11.26;79.26
12897;BME280;6516;35.028;32.372;2023-01-30T00:49:10;99744.63;;;11.26;79.42
12897;BME280;6516;35.028;32.372;2023-01-30T00:51:38;99732.41;;;11.23;79.63
12897;BME280;6516;35.028;32.372;2023-01-30T00:54:07;99738.66;;;11.19;79.82
12897;BME280;6516;35.028;32.372;2023-01-30T00:56:35;99730.84;;;11.14;79.90
12897;BME280;6516;35.028;32.372;2023-01-30T00:59:03;99737.94;;;11.13;79.97
12897;BME280;6516;35.028;32.372;2023-01-30T01:01:31;99738.94;;;11.08;79.95
12897;BME280;6516;35.028;32.372;2023-01-30T01:03:59;99727.47;;;11.09;79.66
12897;BME280;6516;35.028;32.372;2023-01-30T01:06:27;99731.75;;;11.13;79.44
12897;BME280;6516;35.028;32.372;2023-01-30T01:08:54;99725.56;;;11.14;78.42
12897;BME280;6516;35.028;32.372;2023-01-30T01:11:24;99721.16;;;11.17;78.02
12897;BME280;6516;35.028;32.372;2023-01-30T01:13:52;99718.56;;;11.15;77.88
12897;BME280;6516;35.028;32.372;2023-01-30T01:16:21;99719.50;;;11.13;78.00
12897;BME280;6516;35.028;32.372;2023-01-30T01:18:50;99719.50;;;11.13;77.79
12897;BME280;6516;35.028;32.372;2023-01-30T01:21:18;99703.66;;;11.14;77.93
12897;BME280;6516;35.028;32.372;2023-01-30T01:23:48;99702.78;;;11.13;78.36
12897;BME280;6516;35.028;32.372;2023-01-30T01:26:17;99712.34;;;11.18;79.06
12897;BME280;6516;35.028;32.372;2023-01-30T01:28:47;99703.63;;;11.16;79.58
12897;BME280;6516;35.028;32.372;2023-01-30T01:31:15;99708.81;;;11.17;79.87
12897;BME280;6516;35.028;32.372;2023-01-30T01:33:43;99703.53;;;11.18;80.20
12897;BME280;6516;35.028;32.372;2023-01-30T01:36:11;99701.75;;;11.19;80.42
12897;BME280;6516;35.028;32.372;2023-01-30T01:38:40;99698.19;;;11.22;80.73
12897;BME280;6516;35.028;32.372;2023-01-30T01:41:09;99704.31;;;11.22;80.95
12897;BME280;6516;35.028;32.372;2023-01-30T01:43:38;99700.81;;;11.22;80.92
12897;BME280;6516;35.028;32.372;2023-01-30T01:46:31;99700.84;;;11.20;81.48
12897;BME280;6516;35.028;32.372;2023-01-30T01:49:03;99702.53;;;11.23;80.70
12897;BME280;6516;35.028;32.372;2023-01-30T01:51:35;99703.38;;;11.25;80.42
12897;BME280;6516;35.028;32.372;2023-01-30T01:54:08;99699.97;;;11.19;80.52
12897;BME280;6516;35.028;32.372;2023-01-30T01:56:42;99701.88;;;11.14;80.28
12897;BME280;6516;35.028;32.372;2023-01-30T01:59:18;99701.03;;;11.14;79.94
12897;BME280;6516;35.028;32.372;2023-01-30T02:01:50;99697.25;;;11.23;78.29
12897;BME280;6516;35.028;32.372;2023-01-30T02:04:20;99696.59;;;11.14;78.94
12897;BME280;6516;35.028;32.372;2023-01-30T02:07:15;99693.94;;;11.16;78.61
12897;BME280;6516;35.028;32.372;2023-01-30T02:09:44;99692.25;;;11.13;78.62
12897;BME280;6516;35.028;32.372;2023-01-30T02:12:13;99689.56;;;11.15;78.58
12897;BME280;6516;35.028;32.372;2023-01-30T02:14:45;99698.44;;;11.13;78.22
12897;BME280;6516;35.028;32.372;2023-01-30T02:17:14;99692.28;;;11.12;77.73
12897;BME280;6516;35.028;32.372;2023-01-30T02:19:46;99694.94;;;11.10;77.60
12897;BME280;6516;35.028;32.372;2023-01-30T02:25:35;99691.50;;;11.08;77.81
12897;BME280;6516;35.028;32.372;2023-01-30T02:28:51;99691.47;;;11.10;77.42
12897;BME280;6516;35.028;32.372;2023-01-30T02:31:47;99687.97;;;11.09;77.57
12897;BME280;6516;35.028;32.372;2023-01-30T02:34:30;99691.53;;;11.07;77.64
12897;BME280;6516;35.028;32.372;2023-01-30T02:37:14;99685.47;;;11.05;77.91
12897;BME280;6516;35.028;32.372;2023-01-30T02:40:00;99680.09;;;11.08;77.98
12897;BME280;6516;35.028;32.372;2023-01-30T02:42:38;99677.34;;;11.13;78.34
12897;BME280;6516;35.028;32.372;2023-01-30T02:45:15;99676.41;;;11.15;78.54
12897;BME280;6516;35.028;32.372;2023-01-30T02:47:51;99677.06;;;11.23;78.79
12897;BME280;6516;35.028;32.372;2023-01-30T02:50:25;99683.06;;;11.28;78.98
12897;BME280;6516;35.028;32.372;2023-01-30T02:52:55;99675.13;;;11.30;79.04
12897;BME280;6516;35.028;32.372;2023-01-30T02:55:26;99682.88;;;11.34;79.34
12897;BME280;6516;35.028;32.372;2023-01-30T02:57:54;99674.91;;;11.37;79.67
12897;BME280;6516;35.028;32.372;2023-01-30T03:00:32;99680.97;;;11.39;80.13
12897;BME280;6516;35.028;32.372;2023-01-30T03:03:31;99683.66;;;11.38;80.18
12897;BME280;6516;35.028;32.372;2023-01-30T03:06:20;99678.38;;;11.38;80.62
12897;BME280;6516;35.028;32.372;2023-01-30T03:09:05;99677.50;;;11.39;80.55
12897;BME280;6516;35.028;32.372;2023-01-30T03:11:43;99676.56;;;11.40;80.39
12897;BME280;6516;35.028;32.372;2023-01-30T03:14:18;99677.31;;;11.45;80.05
12897;BME280;6516;35.028;32.372;2023-01-30T03:16:53;99671.03;;;11.49;79.57
12897;BME280;6516;35.028;32.372;2023-01-30T03:19:24;99667.50;;;11.50;79.70
12897;BME280;6516;35.028;32.372;2023-01-30T03:21:54;99657.59;;;11.58;78.96
12897;BME280;6516;35.028;32.372;2023-01-30T03:24:21;99661.66;;;11.69;78.45
12897;BME280;6516;35.028;32.372;2023-01-30T03:26:53;99652.72;;;11.75;78.33
12897;BME280;6516;35.028;32.372;2023-01-30T03:29:24;99648.97;;;11.82;78.57
12897;BME280;6516;35.028;32.372;2023-01-30T03:31:52;99652.31;;;11.87;78.95
12897;BME280;6516;35.028;32.372;2023-01-30T03:34:21;99654.66;;;11.96;79.25
12897;BME280;6516;35.028;32.372;2023-01-30T03:36:51;99665.13;;;11.99;80.17
12897;BME280;6516;35.028;32.372;2023-01-30T03:39:19;99664.13;;;12.03;81.73
12897;BME280;6516;35.028;32.372;2023-01-30T03:41:47;99670.34;;;12.02;82.99
12897;BME280;6516;35.028;32.372;2023-01-30T03:44:14;99670.41;;;11.99;82.76
12897;BME280;6516;35.028;32.372;2023-01-30T03:46:42;99675.91;;;11.93;82.00
12897;BME280;6516;35.028;32.372;2023-01-30T03:49:10;99666.22;;;11.92;81.75
12897;BME280;6516;35.028;32.372;2023-01-30T03:51:37;99667.97;;;11.93;80.89
12897;BME280;6516;35.028;32.372;2023-01-30T03:54:07;99666.22;;;11.92;81.04
12897;BME280;6516;35.028;32.372;2023-01-30T03:56:34;99668.09;;;11.88;80.58
12897;BME280;6516;35.028;32.372;2023-01-30T03:59:02;99680.50;;;11.86;80.65
12897;BME280;6516;35.028;32.372;2023-01-30T04:01:30;99678.06;;;11.79;80.80
12897;BME280;6516;35.028;32.372;2023-01-30T04:03:57;99671.97;;;11.77;79.96
12897;BME280;6516;35.028;32.372;2023-01-30T04:06:25;99671.28;;;11.70;79.40
12897;BME280;6516;35.028;32.372;2023-01-30T04:08:53;99670.47;;;11.70;78.48
12897;BME280;6516;35.028;32.372;2023-01-30T04:11:22;99673.09;;;11.70;77.83
12897;BME280;6516;35.028;32.372;2023-01-30T04:13:50;99664.34;;;11.68;77.63
12897;BME280;6516;35.028;32.372;2023-01-30T04:16:19;99667.06;;;11.65;78.04
12897;BME280;6516;35.028;32.372;2023-01-30T04:18:48;99668.97;;;11.60;78.04
12897;BME280;6516;35.028;32.372;2023-01-30T04:21:17;99663.09;;;11.50;78.70
12897;BME280;6516;35.028;32.372;2023-01-30T04:23:44;99657.91;;;11.47;79.06
12897;BME280;6516;35.028;32.372;2023-01-30T04:26:13;99662.38;;;11.45;78.97
12897;BME280;6516;35.028;32.372;2023-01-30T04:28:42;99658.94;;;11.42;79.25
12897;BME280;6516;35.028;32.372;2023-01-30T04:31:10;99662.22;;;11.50;78.87
12897;BME280;6516;35.028;32.372;2023-01-30T04:33:38;99671.56;;;11.61;77.95
12897;BME280;6516;35.028;32.372;2023-01-30T04:36:07;99674.97;;;11.65;77.74
12897;BME280;6516;35.028;32.372;2023-01-30T04:38:36;99671.38;;;11.67;77.83
12897;BME280;6516;35.028;32.372;2023-01-30T04:41:04;99670.34;;;11.73;77.07
12897;BME280;6516;35.028;32.372;2023-01-30T04:43:32;99667.75;;;11.71;77.29
12897;BME280;6516;35.028;32.372;2023-01-30T04:46:02;99682.72;;;11.71;77.26
12897;BME280;6516;35.028;32.372;2023-01-30T04:48:30;99674.81;;;11.71;76.99
12897;BME280;6516;35.028;32.372;2023-01-30T04:50:58;99682.81;;;11.68;76.90
12897;BME280;6516;35.028;32.372;2023-01-30T04:53:26;99690.72;;;11.68;76.65
12897;BME280;6516;35.028;32.372;2023-01-30T04:55:54;99686.41;;;11.65;77.20
12897;BME280;6516;35.028;32.372;2023-01-30T04:58:22;99687.34;;;11.63;77.52
12897;BME280;6516;35.028;32.372;2023-01-30T05:00:50;99682.88;;;11.65;77.66
12897;BME280;6516;35.028;32.372;2023-01-30T05:03:20;99686.34;;;11.67;78.03
12897;BME280;6516;35.028;32.372;2023-01-30T05:05:48;99674.84;;;11.69;78.24
12897;BME280;6516;35.028;32.372;2023-01-30T05:08:16;99683.41;;;11.77;78.40
12897;BME280;6516;35.028;32.372;2023-01-30T05:10:44;99680.28;;;11.92;78.19
12897;BME280;6516;35.028;32.372;2023-01-30T05:13:12;99692.88;;;12.12;78.04
12897;BME280;6516;35.028;32.372;2023-01-30T05:15:40;99684.06;;;12.39;76.84
12897;BME280;6516;35.028;32.372;2023-01-30T05:18:08;99693.81;;;12.63;76.62
12897;BME280;6516;35.028;32.372;2023-01-30T05:20:37;99695.78;;;12.82;76.26
12897;BME280;6516;35.028;32.372;2023-01-30T05:23:05;99692.66;;;12.96;76.21
12897;BME280;6516;35.028;32.372;2023-01-30T05:25:33;99690.66;;;13.04;74.82
12897;BME280;6516;35.028;32.372;2023-01-30T05:28:01;99697.47;;;13.11;73.48
12897;BME280;6516;35.028;32.372;2023-01-30T05:30:28;99704.69;;;13.06;73.16
12897;BME280;6516;35.028;32.372;2023-01-30T05:32:57;99704.16;;;12.95;73.57
12897;BME280;6516;35.028;32.372;2023-01-30T05:35:25;99710.78;;;12.82;74.36
12897;BME280;6516;35.028;32.372;2023-01-30T05:37:54;99708.47;;;12.71;75.22
12897;BME280;6516;35.028;32.372;2023-01-30T05:40:22;99711.50;;;12.61;75.84
12897;BME280;6516;35.028;32.372;2023-01-30T05:42:50;99704.13;;;12.44;77.04
12897;BME280;6516;35.028;32.372;2023-01-30T05:45:18;99712.09;;;12.43;78.10
12897;BME280;6516;35.028;32.372;2023-01-30T05:47:50;99710.00;;;12.52;79.72
12897;BME280;6516;35.028;32.372;2023-01-30T05:50:18;99705.41;;;12.59;80.73
12897;BME280;6516;35.028;32.372;2023-01-30T05:52:46;99706.75;;;12.70;79.76
12897;BME280;6516;35.028;32.372;2023-01-30T05:55:15;99703.56;;;12.87;78.55
12897;BME280;6516;35.028;32.372;2023-01-30T05:57:43;99712.41;;;13.12;77.20
12897;BME280;6516;35.028;32.372;2023-01-30T06:00:12;99707.16;;;13.35;76.22
12897;BME280;6516;35.028;32.372;2023-01-30T06:02:41;99708.41;;;13.49;76.30
12897;BME280;6516;35.028;32.372;2023-01-30T06:05:08;99709.59;;;13.64;75.80
12897;BME280;6516;35.028;32.372;2023-01-30T06:07:36;99716.28;;;13.74;75.30
12897;BME280;6516;35.028;32.372;2023-01-30T06:10:04;99716.69;;;13.86;75.61
12897;BME280;6516;35.028;32.372;2023-01-30T06:12:34;99715.09;;;14.04;74.43
12897;BME280;6516;35.028;32.372;2023-01-30T06:15:02;99719.06;;;14.15;72.30
12897;BME280;6516;35.028;32.372;2023-01-30T06:17:30;99725.53;;;14.31;73.28
12897;BME280;6516;35.028;32.372;2023-01-30T06:19:58;99727.50;;;14.48;72.74
12897;BME280;6516;35.028;32.372;2023-01-30T06:22:25;99718.25;;;14.58;71.33
12897;BME280;6516;35.028;32.372;2023-01-30T06:24:53;99725.25;;;14.59;70.87
12897;BME280;6516;35.028;32.372;2023-01-30T06:27:21;99735.56;;;14.45;73.00
12897;BME280;6516;35.028;32.372;2023-01-30T06:29:50;99736.91;;;14.10;75.75
12897;BME280;6516;35.028;32.372;2023-01-30T06:32:18;99736.91;;;13.64;77.95
12897;BME280;6516;35.028;32.372;2023-01-30T06:34:46;99736.06;;;13.39;79.69
12897;BME280;6516;35.028;32.372;2023-01-30T06:37:13;99742.16;;;12.91;82.95
12897;BME280;6516;35.028;32.372;2023-01-30T06:39:41;99748.28;;;12.67;83.18
12897;BME280;6516;35.028;32.372;2023-01-30T06:42:09;99754.16;;;12.49;83.22
12897;BME280;6516;35.028;32.372;2023-01-30T06:44:36;99750.31;;;12.31;83.13
12897;BME280;6516;35.028;32.372;2023-01-30T06:47:06;99754.53;;;12.09;84.27
12897;BME280;6516;35.028;32.372;2023-01-30T06:49:33;99761.91;;;11.97;84.76
12897;BME280;6516;35.028;32.372;2023-01-30T06:52:01;99758.66;;;11.89;84.44
12897;BME280;6516;35.028;32.372;2023-01-30T06:54:29;99762.44;;;11.79;85.68
12897;BME280;6516;35.028;32.372;2023-01-30T06:56:56;99752.84;;;11.76;86.88
12897;BME280;6516;35.028;32.372;2023-01-30T06:59:24;99750.38;;;11.72;86.68
12897;BME280;6516;35.028;32.372;2023-01-30T07:01:52;99756.97;;;11.86;86.83
12897;BME280;6516;35.028;32.372;2023-01-30T07:04:21;99751.44;;;11.95;86.59
12897;BME280;6516;35.028;32.372;2023-01-30T07:06:49;99751.19;;;12.03;85.60
12897;BME280;6516;35.028;32.372;2023-01-30T07:09:17;99747.72;;;12.30;84.80
12897;BME280;6516;35.028;32.372;2023-01-30T07:11:44;99742.81;;;12.71;85.98
12897;BME280;6516;35.028;32.372;2023-01-30T07:14:14;99736.63;;;13.24;84.52
12897;BME280;6516;35.028;32.372;2023-01-30T07:16:42;99737.50;;;13.72;83.97
12897;BME280;6516;35.028;32.372;2023-01-30T07:19:10;99740.78;;;14.25;82.29
12897;BME280;6516;35.028;32.372;2023-01-30T07:21:40;99740.66;;;14.71;79.51
12897;BME280;6516;35.028;32.372;2023-01-30T07:24:08;99725.56;;;15.14;75.37
12897;BME280;6516;35.028;32.372;2023-01-30T07:26:36;99723.75;;;15.55;71.79
12897;BME280;6516;35.028;32.372;2023-01-30T07:29:03;99715.13;;;15.88;71.65
12897;BME280;6516;35.028;32.372;2023-01-30T07:31:31;99722.81;;;16.31;69.39
12897;BME280;6516;35.028;32.372;2023-01-30T07:33:59;99717.41;;;16.70;67.70
12897;BME280;6516;35.028;32.372;2023-01-30T07:36:26;99711.66;;;16.96;66.76
12897;BME280;6516;35.028;32.372;2023-01-30T07:38:59;99708.44;;;17.23;63.52
12897;BME280;6516;35.028;32.372;2023-01-30T07:41:27;99707.56;;;17.57;63.57
12897;BME280;6516;35.028;32.372;2023-01-30T07:43:55;99707.97;;;17.82;61.19
12897;BME280;6516;35.028;32.372;2023-01-30T07:46:23;99706.88;;;18.17;60.28
12897;BME280;6516;35.028;32.372;2023-01-30T07:48:51;99702.78;;;18.42;60.21
12897;BME280;6516;35.028;32.372;2023-01-30T07:51:18;99703.78;;;18.71;58.48
12897;BME280;6516;35.028;32.372;2023-01-30T07:53:48;99695.13;;;18.97;56.40
12897;BME280;6516;35.028;32.372;2023-01-30T07:56:18;99700.81;;;19.36;57.31
12897;BME280;6516;35.028;32.372;2023-01-30T07:58:47;99701.00;;;19.61;55.33
12897;BME280;6516;35.028;32.372;2023-01-30T08:01:16;99698.91;;;19.80;52.74
12897;BME280;6516;35.028;32.372;2023-01-30T08:03:44;99701.81;;;19.77;51.12
12897;BME280;6516;35.028;32.372;2023-01-30T08:06:14;99692.91;;;19.91;52.56
12897;BME280;6516;35.028;32.372;2023-01-30T08:08:42;99702.16;;;19.85;52.40
12897;BME280;6516;35.028;32.372;2023-01-30T08:11:10;99687.88;;;19.86;52.47
12897;BME280;6516;35.028;32.372;2023-01-30T08:13:39;99689.00;;;20.10;51.25
12897;BME280;6516;35.028;32.372;2023-01-30T08:16:07;99693.16;;;20.42;51.08
12897;BME280;6516;35.028;32.372;2023-01-30T08:18:35;99694.72;;;20.32;46.82
12897;BME280;6516;35.028;32.372;2023-01-30T08:21:04;99696.81;;;19.99;47.13
12897;BME280;6516;35.028;32.372;2023-01-30T08:23:33;99698.31;;;20.03;47.87
12897;BME280;6516;35.028;32.372;2023-01-30T08:26:02;99705.78;;;19.70;49.07
12897;BME280;6516;35.028;32.372;2023-01-30T08:28:31;99708.03;;;19.34;47.57
12897;BME280;6516;35.028;32.372;2023-01-30T08:31:00;99707.34;;;19.01;48.70
12897;BME280;6516;35.028;32.372;2023-01-30T08:33:28;99708.75;;;18.47;50.05
12897;BME280;6516;35.028;32.372;2023-01-30T08:35:55;99712.72;;;18.08;50.90
12897;BME280;6516;35.028;32.372;2023-01-30T08:38:24;99706.44;;;17.78;52.06
12897;BME280;6516;35.028;32.372;2023-01-30T08:40:51;99710.25;;;17.40;52.96
12897;BME280;6516;35.028;32.372;2023-01-30T08:43:21;99703.59;;;17.14;54.17
12897;BME280;6516;35.028;32.372;2023-01-30T08:45:52;99700.84;;;16.99;54.31
12897;BME280;6516;35.028;32.372;2023-01-30T08:48:22;99706.47;;;16.76;55.55
12897;BME280;6516;35.028;32.372;2023-01-30T08:50:51;99695.78;;;16.59;55.72
12897;BME280;6516;35.028;32.372;2023-01-30T08:53:19;99691.59;;;16.55;56.38
12897;BME280;6516;35.028;32.372;2023-01-30T08:55:49;99685.34;;;16.56;56.49
12897;BME280;6516;35.028;32.372;2023-01-30T08:58:17;99675.16;;;16.47;56.77
12897;BME280;6516;35.028;32.372;2023-01-30T09:00:45;99679.69;;;16.62;56.83
12897;BME280;6516;35.028;32.372;2023-01-30T09:03:14;99680.03;;;17.07;56.31
12897;BME280;6516;35.028;32.372;2023-01-30T09:05:44;99664.09;;;17.41;53.69
12897;BME280;6516;35.028;32.372;2023-01-30T09:08:12;99655.22;;;17.73;54.30
12897;BME280;6516;35.028;32.372;2023-01-30T09:10:39;99655.72;;;17.95;53.48
12897;BME280;6516;35.028;32.372;2023-01-30T09:13:08;99651.03;;;18.00;53.33
12897;BME280;6516;35.028;32.372;2023-01-30T09:15:36;99638.72;;;18.13;52.91
12897;BME280;6516;35.028;32.372;2023-01-30T09:18:04;99638.81;;;18.27;52.51
12897;BME280;6516;35.028;32.372;2023-01-30T09:20:32;99648.19;;;18.03;52.84
12897;BME280;6516;35.028;32.372;2023-01-30T09:23:01;99639.94;;;17.76;54.35
12897;BME280;6516;35.028;32.372;2023-01-30T09:25:29;99642.31;;;17.50;53.97
12897;BME280;6516;35.028;32.372;2023-01-30T09:27:57;99641.38;;;17.17;54.52
12897;BME280;6516;35.028;32.372;2023-01-30T09:30:25;99641.00;;;17.07;55.52
12897;BME280;6516;35.028;32.372;2023-01-30T09:32:53;99633.19;;;16.87;55.58
12897;BME280;6516;35.028;32.372;2023-01-30T09:35:20;99625.91;;;16.91;55.89
12897;BME280;6516;35.028;32.372;2023-01-30T09:37:49;99631.47;;;17.03;56.37
12897;BME280;6516;35.028;32.372;2023-01-30T09:40:22;99626.97;;;17.21;55.91
12897;BME280;6516;35.028;32.372;2023-01-30T09:43:16;99627.91;;;17.20;54.87
12897;BME280;6516;35.028;32.372;2023-01-30T09:46:17;99618.09;;;17.05;54.25
12897;BME280;6516;35.028;32.372;2023-01-30T09:48:59;99618.63;;;17.11;53.97
12897;BME280;6516;35.028;32.372;2023-01-30T09:51:40;99612.25;;;16.98;54.15
12897;BME280;6516;35.028;32.372;2023-01-30T09:54:20;99604.81;;;17.05;54.23
12897;BME280;6516;35.028;32.372;2023-01-30T09:57:09;99594.56;;;17.30;55.21
12897;BME280;6516;35.028;32.372;2023-01-30T09:59:54;99584.09;;;18.06;54.90
12897;BME280;6516;35.028;32.372;2023-01-30T10:02:40;99557.16;;;18.99;52.41
12897;BME280;6516;35.028;32.372;2023-01-30T10:05:13;99547.25;;;19.57;48.99
12897;BME280;6516;35.028;32.372;2023-01-30T10:07:52;99545.16;;;19.62;50.63
12897;BME280;6516;35.028;32.372;2023-01-30T10:10:46;99544.53;;;19.85;46.83
12897;BME280;6516;35.028;32.372;2023-01-30T10:13:27;99535.53;;;20.00;48.24
12897;BME280;6516;35.028;32.372;2023-01-30T10:16:08;99540.63;;;20.17;46.25
12897;BME280;6516;35.028;32.372;2023-01-30T10:18:52;99541.00;;;20.38;44.59
12897;BME280;6516;35.028;32.372;2023-01-30T10:21:34;99536.22;;;20.43;41.94
12897;BME280;6516;35.028;32.372;2023-01-30T10:24:22;99537.97;;;20.69;40.55
12897;BME280;6516;35.028;32.372;2023-01-30T10:27:00;99534.66;;;20.65;40.62
12897;BME280;6516;35.028;32.372;2023-01-30T10:29:32;99533.22;;;20.47;39.42
12897;BME280;6516;35.028;32.372;2023-01-30T10:32:08;99529.38;;;20.51;39.40
12897;BME280;6516;35.028;32.372;2023-01-30T10:34:39;99525.66;;;20.54;39.67
12897;BME280;6516;35.028;32.372;2023-01-30T10:37:11;99523.78;;;20.42;40.28
12897;BME280;6516;35.028;32.372;2023-01-30T10:39:49;99529.38;;;20.51;40.52
12897;BME280;6516;35.028;32.372;2023-01-30T10:42:24;99526.81;;;20.50;39.84
12897;BME280;6516;35.028;32.372;2023-01-30T10:45:01;99534.56;;;20.67;40.39
12897;BME280;6516;35.028;32.372;2023-01-30T10:47:47;99519.38;;;20.28;39.39
12897;BME280;6516;35.028;32.372;2023-01-30T10:50:25;99522.09;;;20.41;40.35
12897;BME280;6516;35.028;32.372;2023-01-30T10:53:01;99519.94;;;20.33;40.35
12897;BME280;6516;35.028;32.372;2023-01-30T10:55:39;99523.44;;;20.07;41.30
12897;BME280;6516;35.028;32.372;2023-01-30T10:58:16;99517.09;;;19.96;41.49
12897;BME280;6516;35.028;32.372;2023-01-30T11:00:57;99525.25;;;19.53;40.98
12897;BME280;6516;35.028;32.372;2023-01-30T11:03:34;99526.16;;;19.67;40.55
12897;BME280;6516;35.028;32.372;2023-01-30T11:06:06;99512.91;;;19.92;40.61
12897;BME280;6516;35.028;32.372;2023-01-30T11:08:38;99523.03;;;19.87;41.29
12897;BME280;6516;35.028;32.372;2023-01-30T11:11:27;99517.94;;;20.10;41.42
12897;BME280;6516;35.028;32.372;2023-01-30T11:14:03;99513.25;;;20.14;41.88
12897;BME280;6516;35.028;32.372;2023-01-30T11:16:41;99505.16;;;20.28;41.26
12897;BME280;6516;35.028;32.372;2023-01-30T11:19:11;99506.00;;;20.16;42.17
12897;BME280;6516;35.028;32.372;2023-01-30T11:21:40;99501.41;;;20.30;43.19
12897;BME280;6516;35.028;32.372;2023-01-30T11:24:14;99493.69;;;20.13;42.47
12897;BME280;6516;35.028;32.372;2023-01-30T11:26:43;99493.50;;;20.02;43.35
12897;BME280;6516;35.028;32.372;2023-01-30T11:29:24;99496.72;;;20.07;43.69
12897;BME280;6516;35.028;32.372;2023-01-30T11:31:56;99496.38;;;20.13;44.77
12897;BME280;6516;35.028;32.372;2023-01-30T11:34:28;99487.81;;;20.21;45.73
12897;BME280;6516;35.028;32.372;2023-01-30T11:37:12;99486.22;;;20.18;44.14
12897;BME280;6516;35.028;32.372;2023-01-30T11:39:50;99486.34;;;20.29;43.48
12897;BME280;6516;35.028;32.372;2023-01-30T11:42:19;99486.91;;;20.08;42.10
12897;BME280;6516;35.028;32.372;2023-01-30T11:44:55;99486.75;;;19.97;42.45
12897;BME280;6516;35.028;32.372;2023-01-30T11:47:27;99490.59;;;20.19;42.60
12897;BME280;6516;35.028;32.372;2023-01-30T11:49:57;99475.09;;;20.12;42.53
12897;BME280;6516;35.028;32.372;2023-01-30T11:52:28;99477.47;;;20.02;42.05
12897;BME280;6516;35.028;32.372;2023-01-30T11:54:59;99471.34;;;20.14;43.61
12897;BME280;6516;35.028;32.372;2023-01-30T11:57:39;99465.44;;;20.09;43.57
12897;BME280;6516;35.028;32.372;2023-01-30T12:00:16;99469.25;;;20.05;43.57
12897;BME280;6516;35.028;32.372;2023-01-30T12:02:49;99460.69;;;19.73;45.70
12897;BME280;6516;35.028;32.372;2023-01-30T12:05:23;99463.31;;;19.34;47.06
12897;BME280;6516;35.028;32.372;2023-01-30T12:08:12;99468.63;;;18.92;48.54
12897;BME280;6516;35.028;32.372;2023-01-30T12:10:51;99457.69;;;18.83;48.55
12897;BME280;6516;35.028;32.372;2023-01-30T12:13:25;99456.56;;;18.87;48.53
12897;BME280;6516;35.028;32.372;2023-01-30T12:16:14;99454.63;;;19.03;49.49
12897;BME280;6516;35.028;32.372;2023-01-30T12:18:52;99450.13;;;19.31;49.48
12897;BME280;6516;35.028;32.372;2023-01-30T12:21:30;99444.16;;;19.14;49.46
12897;BME280;6516;35.028;32.372;2023-01-30T12:24:11;99449.47;;;19.14;48.92
12897;BME280;6516;35.028;32.372;2023-01-30T12:26:46;99446.94;;;18.84;49.77
12897;BME280;6516;35.028;32.372;2023-01-30T12:29:23;99447.19;;;18.66;50.62
12897;BME280;6516;35.028;32.372;2023-01-30T12:32:03;99451.88;;;18.48;50.56
12897;BME280;6516;35.028;32.372;2023-01-30T12:34:34;99446.63;;;18.47;50.84
12897;BME280;6516;35.028;32.372;2023-01-30T12:37:15;99443.22;;;18.59;51.34
12897;BME280;6516;35.028;32.372;2023-01-30T12:40:19;99447.09;;;18.53;51.48
12897;BME280;6516;35.028;32.372;2023-01-30T12:43:25;99445.19;;;18.41;50.71
12897;BME280;6516;35.028;32.372;2023-01-30T12:46:06;99450.34;;;18.15;52.50
12897;BME280;6516;35.028;32.372;2023-01-30T12:48:49;99445.22;;;17.96;52.20
12897;BME280;6516;35.028;32.372;2023-01-30T12:51:40;99442.13;;;17.59;53.15
12897;BME280;6516;35.028;32.372;2023-01-30T12:54:26;99442.97;;;17.28;55.37
12897;BME280;6516;35.028;32.372;2023-01-30T12:57:14;99447.53;;;17.26;56.78
12897;BME280;6516;35.028;32.372;2023-01-30T13:00:00;99443.50;;;17.35;56.74
12897;BME280;6516;35.028;32.372;2023-01-30T13:02:51;99455.69;;;17.23;56.66
12897;BME280;6516;35.028;32.372;2023-01-30T13:05:39;99446.22;;;17.18;56.26
12897;BME280;6516;35.028;32.372;2023-01-30T13:08:23;99454.00;;;16.90;55.16
12897;BME280;6516;35.028;32.372;2023-01-30T13:11:20;99450.72;;;16.69;57.29
12897;BME280;6516;35.028;32.372;2023-01-30T13:14:03;99447.38;;;16.66;57.36
12897;BME280;6516;35.028;32.372;2023-01-30T13:16:37;99452.00;;;16.62;59.05
12897;BME280;6516;35.028;32.372;2023-01-30T13:19:19;99454.41;;;16.67;61.83
12897;BME280;6516;35.028;32.372;2023-01-30T13:21:55;99450.47;;;16.74;58.19
12897;BME280;6516;35.028;32.372;2023-01-30T13:24:41;99451.09;;;16.79;56.89
12897;BME280;6516;35.028;32.372;2023-01-30T13:27:18;99446.41;;;16.99;54.95
12897;BME280;6516;35.028;32.372;2023-01-30T13:29:50;99443.66;;;17.01;52.73
12897;BME280;6516;35.028;32.372;2023-01-30T13:32:26;99436.28;;;16.90;53.85